sensor_id;sensor_type;location;lat;lon;timestamp;temperature;humidity
68128;SHT30;54931;52.098;21.006;2023-07-16T00:01:30;21.70;61.17
68128;SHT30;54931;52.098;21.006;2023-07-16T00:03:57;21.65;61.26
68128;SHT30;54931;52.098;21.006;2023-07-16T00:06:25;21.59;61.44
68128;SHT30;54931;52.098;21.006;2023-07-16T00:08:52;21.56;61.68
68128;SHT30;54931;52.098;21.006;2023-07-16T00:11:20;21.50;61.80
68128;SHT30;54931;52.098;21.006;2023-07-16T00:13:47;21.46;61.92
68128;SHT30;54931;52.098;21.006;2023-07-16T00:16:15;21.41;62.03
68128;SHT30;54931;52.098;21.006;2023-07-16T00:18:44;21.36;62.22
68128;SHT30;54931;52.098;21.006;2023-07-16T00:21:12;21.32;62.43
68128;SHT30;54931;52.098;21.006;2023-07-16T00:23:39;21.30;62.71
68128;SHT30;54931;52.098;21.006;2023-07-16T00:26:07;21.29;62.72
68128;SHT30;54931;52.098;21.006;2023-07-16T00:28:34;21.30;62.79
68128;SHT30;54931;52.098;21.006;2023-07-16T00:31:02;21.31;62.64
68128;SHT30;54931;52.098;21.006;2023-07-16T00:33:29;21.30;62.76
68128;SHT30;54931;52.098;21.006;2023-07-16T00:35:58;21.28;62.76
68128;SHT30;54931;52.098;21.006;2023-07-16T00:38:25;21.26;62.75
68128;SHT30;54931;52.098;21.006;2023-07-16T00:40:53;21.25;62.84
68128;SHT30;54931;52.098;21.006;2023-07-16T00:43:21;21.24;62.96
68128;SHT30;54931;52.098;21.006;2023-07-16T00:45:49;21.22;62.93
68128;SHT30;54931;52.098;21.006;2023-07-16T00:48:16;21.19;62.99
68128;SHT30;54931;52.098;21.006;2023-07-16T00:50:45;21.16;63.05
68128;SHT30;54931;52.098;21.006;2023-07-16T00:53:13;21.11;63.11
68128;SHT30;54931;52.098;21.006;2023-07-16T00:55:41;21.05;63.24
68128;SHT30;54931;52.098;21.006;2023-07-16T00:58:09;21.00;63.42
68128;SHT30;54931;52.098;21.006;2023-07-16T01:00:37;20.96;63.56
68128;SHT30;54931;52.098;21.006;2023-07-16T01:03:07;20.91;63.74
68128;SHT30;54931;52.098;21.006;2023-07-16T01:05:47;20.86;63.86
68128;SHT30;54931;52.098;21.006;2023-07-16T01:08:27;20.80;64.15
68128;SHT30;54931;52.098;21.006;2023-07-16T01:11:02;20.75;64.41
68128;SHT30;54931;52.098;21.006;2023-07-16T01:13:31;20.70;64.49
68128;SHT30;54931;52.098;21.006;2023-07-16T01:15:59;20.64;64.71
68128;SHT30;54931;52.098;21.006;2023-07-16T01:18:27;20.62;64.93
68128;SHT30;54931;52.098;21.006;2023-07-16T01:20:54;20.58;64.99
68128;SHT30;54931;52.098;21.006;2023-07-16T01:23:35;20.55;65.10
68128;SHT30;54931;52.098;21.006;2023-07-16T01:32:05;20.48;65.61
68128;SHT30;54931;52.098;21.006;2023-07-16T01:34:35;20.45;65.72
68128;SHT30;54931;52.098;21.006;2023-07-16T01:37:04;20.44;65.80
68128;SHT30;54931;52.098;21.006;2023-07-16T01:39:32;20.40;65.99
68128;SHT30;54931;52.098;21.006;2023-07-16T01:42:00;20.38;66.24
68128;SHT30;54931;52.098;21.006;2023-07-16T01:44:28;20.36;66.32
68128;SHT30;54931;52.098;21.006;2023-07-16T01:47:11;20.34;66.60
68128;SHT30;54931;52.098;21.006;2023-07-16T01:49:47;20.33;66.56
68128;SHT30;54931;52.098;21.006;2023-07-16T01:52:14;20.32;66.92
68128;SHT30;54931;52.098;21.006;2023-07-16T01:54:42;20.32;67.16
68128;SHT30;54931;52.098;21.006;2023-07-16T01:57:09;20.34;67.15
68128;SHT30;54931;52.098;21.006;2023-07-16T01:59:37;20.35;67.10
68128;SHT30;54931;52.098;21.006;2023-07-16T02:02:05;20.34;67.01
68128;SHT30;54931;52.098;21.006;2023-07-16T02:04:32;20.32;67.03
68128;SHT30;54931;52.098;21.006;2023-07-16T02:07:00;20.29;67.31
68128;SHT30;54931;52.098;21.006;2023-07-16T02:09:28;20.27;67.38
68128;SHT30;54931;52.098;21.006;2023-07-16T02:11:56;20.24;67.39
68128;SHT30;54931;52.098;21.006;2023-07-16T02:14:24;20.24;67.72
68128;SHT30;54931;52.098;21.006;2023-07-16T02:16:52;20.23;67.70
68128;SHT30;54931;52.098;21.006;2023-07-16T02:19:19;20.21;67.86
68128;SHT30;54931;52.098;21.006;2023-07-16T02:21:47;20.19;67.75
68128;SHT30;54931;52.098;21.006;2023-07-16T02:24:14;20.17;67.84
68128;SHT30;54931;52.098;21.006;2023-07-16T02:26:42;20.15;67.93
68128;SHT30;54931;52.098;21.006;2023-07-16T02:29:09;20.13;68.04
68128;SHT30;54931;52.098;21.006;2023-07-16T02:31:37;20.09;68.05
68128;SHT30;54931;52.098;21.006;2023-07-16T02:34:04;20.06;68.23
68128;SHT30;54931;52.098;21.006;2023-07-16T02:36:31;20.00;68.39
68128;SHT30;54931;52.098;21.006;2023-07-16T02:38:59;19.96;68.49
68128;SHT30;54931;52.098;21.006;2023-07-16T02:41:26;19.94;68.77
68128;SHT30;54931;52.098;21.006;2023-07-16T02:44:01;19.94;68.85
68128;SHT30;54931;52.098;21.006;2023-07-16T02:46:32;19.93;69.17
68128;SHT30;54931;52.098;21.006;2023-07-16T02:49:02;19.92;69.51
68128;SHT30;54931;52.098;21.006;2023-07-16T02:51:31;19.92;69.55
68128;SHT30;54931;52.098;21.006;2023-07-16T02:53:58;19.89;69.45
68128;SHT30;54931;52.098;21.006;2023-07-16T02:56:25;19.87;70.02
68128;SHT30;54931;52.098;21.006;2023-07-16T02:58:53;19.86;69.92
68128;SHT30;54931;52.098;21.006;2023-07-16T03:01:20;19.83;70.13
68128;SHT30;54931;52.098;21.006;2023-07-16T03:03:48;19.83;70.26
68128;SHT30;54931;52.098;21.006;2023-07-16T03:06:15;19.82;70.28
68128;SHT30;54931;52.098;21.006;2023-07-16T03:08:43;19.81;70.50
68128;SHT30;54931;52.098;21.006;2023-07-16T03:11:12;19.82;70.88
68128;SHT30;54931;52.098;21.006;2023-07-16T03:13:40;19.84;71.01
68128;SHT30;54931;52.098;21.006;2023-07-16T03:16:07;19.88;71.36
68128;SHT30;54931;52.098;21.006;2023-07-16T03:18:36;19.92;71.24
68128;SHT30;54931;52.098;21.006;2023-07-16T03:21:03;19.93;71.22
68128;SHT30;54931;52.098;21.006;2023-07-16T03:23:31;19.99;71.42
68128;SHT30;54931;52.098;21.006;2023-07-16T03:25:58;20.15;71.18
68128;SHT30;54931;52.098;21.006;2023-07-16T03:28:26;20.17;71.12
68128;SHT30;54931;52.098;21.006;2023-07-16T03:30:54;20.18;71.06
68128;SHT30;54931;52.098;21.006;2023-07-16T03:33:21;20.19;71.10
68128;SHT30;54931;52.098;21.006;2023-07-16T03:35:49;20.23;70.92
68128;SHT30;54931;52.098;21.006;2023-07-16T03:38:17;20.26;70.96
68128;SHT30;54931;52.098;21.006;2023-07-16T03:40:48;20.35;71.06
68128;SHT30;54931;52.098;21.006;2023-07-16T03:43:17;20.47;70.84
68128;SHT30;54931;52.098;21.006;2023-07-16T03:45:45;20.63;70.65
68128;SHT30;54931;52.098;21.006;2023-07-16T03:48:13;20.80;70.28
68128;SHT30;54931;52.098;21.006;2023-07-16T03:50:40;20.96;69.86
68128;SHT30;54931;52.098;21.006;2023-07-16T03:53:09;21.13;69.55
68128;SHT30;54931;52.098;21.006;2023-07-16T03:55:37;21.31;69.18
68128;SHT30;54931;52.098;21.006;2023-07-16T03:58:04;21.47;68.77
68128;SHT30;54931;52.098;21.006;2023-07-16T04:00:32;21.65;68.41
68128;SHT30;54931;52.098;21.006;2023-07-16T04:03:00;21.84;68.03
68128;SHT30;54931;52.098;21.006;2023-07-16T04:05:28;22.02;67.60
68128;SHT30;54931;52.098;21.006;2023-07-16T04:07:55;22.19;67.17
68128;SHT30;54931;52.098;21.006;2023-07-16T04:10:23;22.38;66.77
68128;SHT30;54931;52.098;21.006;2023-07-16T04:12:51;22.55;66.35
68128;SHT30;54931;52.098;21.006;2023-07-16T04:15:19;22.73;66.01
68128;SHT30;54931;52.098;21.006;2023-07-16T04:17:47;22.95;65.45
68128;SHT30;54931;52.098;21.006;2023-07-16T04:20:14;23.14;64.84
68128;SHT30;54931;52.098;21.006;2023-07-16T04:22:42;23.34;64.43
68128;SHT30;54931;52.098;21.006;2023-07-16T04:25:09;23.57;64.06
68128;SHT30;54931;52.098;21.006;2023-07-16T04:27:38;23.81;63.23
68128;SHT30;54931;52.098;21.006;2023-07-16T04:30:09;24.02;62.73
68128;SHT30;54931;52.098;21.006;2023-07-16T04:32:37;24.23;62.48
68128;SHT30;54931;52.098;21.006;2023-07-16T04:35:05;24.45;61.89
68128;SHT30;54931;52.098;21.006;2023-07-16T04:37:33;24.67;61.45
68128;SHT30;54931;52.098;21.006;2023-07-16T04:40:00;24.89;60.86
68128;SHT30;54931;52.098;21.006;2023-07-16T04:42:28;25.11;60.26
68128;SHT30;54931;52.098;21.006;2023-07-16T04:44:56;25.35;59.91
68128;SHT30;54931;52.098;21.006;2023-07-16T04:47:23;25.55;59.06
68128;SHT30;54931;52.098;21.006;2023-07-16T04:49:50;25.72;58.72
68128;SHT30;54931;52.098;21.006;2023-07-16T04:52:18;25.89;58.11
68128;SHT30;54931;52.098;21.006;2023-07-16T04:54:46;26.01;57.57
68128;SHT30;54931;52.098;21.006;2023-07-16T04:57:14;26.15;57.20
68128;SHT30;54931;52.098;21.006;2023-07-16T04:59:41;26.33;57.12
68128;SHT30;54931;52.098;21.006;2023-07-16T05:02:09;26.45;56.22
68128;SHT30;54931;52.098;21.006;2023-07-16T05:04:36;26.58;56.41
68128;SHT30;54931;52.098;21.006;2023-07-16T05:07:04;26.78;55.76
68128;SHT30;54931;52.098;21.006;2023-07-16T05:09:31;26.85;55.32
68128;SHT30;54931;52.098;21.006;2023-07-16T05:11:59;26.97;55.31
68128;SHT30;54931;52.098;21.006;2023-07-16T05:14:27;27.13;54.89
68128;SHT30;54931;52.098;21.006;2023-07-16T05:16:56;27.24;54.32
68128;SHT30;54931;52.098;21.006;2023-07-16T05:19:23;27.36;53.97
68128;SHT30;54931;52.098;21.006;2023-07-16T05:21:51;27.48;54.00
68128;SHT30;54931;52.098;21.006;2023-07-16T05:24:18;27.68;53.49
68128;SHT30;54931;52.098;21.006;2023-07-16T05:26:46;27.83;53.20
68128;SHT30;54931;52.098;21.006;2023-07-16T05:29:14;28.05;53.10
68128;SHT30;54931;52.098;21.006;2023-07-16T05:31:42;28.27;52.25
68128;SHT30;54931;52.098;21.006;2023-07-16T05:34:10;28.31;51.80
68128;SHT30;54931;52.098;21.006;2023-07-16T05:36:37;28.39;51.74
68128;SHT30;54931;52.098;21.006;2023-07-16T05:39:05;28.54;52.03
68128;SHT30;54931;52.098;21.006;2023-07-16T05:41:32;28.77;51.36
68128;SHT30;54931;52.098;21.006;2023-07-16T05:43:59;28.91;50.52
68128;SHT30;54931;52.098;21.006;2023-07-16T05:46:27;28.97;50.40
68128;SHT30;54931;52.098;21.006;2023-07-16T05:48:54;29.19;50.69
68128;SHT30;54931;52.098;21.006;2023-07-16T05:51:22;29.41;50.18
68128;SHT30;54931;52.098;21.006;2023-07-16T05:53:49;29.56;49.53
68128;SHT30;54931;52.098;21.006;2023-07-16T05:56:16;29.70;48.88
68128;SHT30;54931;52.098;21.006;2023-07-16T05:58:44;29.75;48.86
68128;SHT30;54931;52.098;21.006;2023-07-16T06:01:11;29.83;48.92
68128;SHT30;54931;52.098;21.006;2023-07-16T06:03:39;29.81;48.50
68128;SHT30;54931;52.098;21.006;2023-07-16T06:06:10;30.00;48.54
68128;SHT30;54931;52.098;21.006;2023-07-16T06:08:37;29.99;48.19
68128;SHT30;54931;52.098;21.006;2023-07-16T06:11:05;30.00;48.23
68128;SHT30;54931;52.098;21.006;2023-07-16T06:13:32;30.13;48.09
68128;SHT30;54931;52.098;21.006;2023-07-16T06:16:00;30.27;47.94
68128;SHT30;54931;52.098;21.006;2023-07-16T06:18:27;30.59;48.11
68128;SHT30;54931;52.098;21.006;2023-07-16T06:20:55;31.00;47.64
68128;SHT30;54931;52.098;21.006;2023-07-16T06:23:22;31.16;46.08
68128;SHT30;54931;52.098;21.006;2023-07-16T06:25:53;31.21;46.24
68128;SHT30;54931;52.098;21.006;2023-07-16T06:28:23;31.33;46.20
68128;SHT30;54931;52.098;21.006;2023-07-16T06:30:50;31.47;45.84
68128;SHT30;54931;52.098;21.006;2023-07-16T06:33:19;31.53;45.61
68128;SHT30;54931;52.098;21.006;2023-07-16T06:35:47;31.72;45.69
68128;SHT30;54931;52.098;21.006;2023-07-16T06:38:15;31.95;45.39
68128;SHT30;54931;52.098;21.006;2023-07-16T06:40:46;32.19;45.19
68128;SHT30;54931;52.098;21.006;2023-07-16T06:43:18;32.30;44.19
68128;SHT30;54931;52.098;21.006;2023-07-16T06:45:45;32.44;44.25
68128;SHT30;54931;52.098;21.006;2023-07-16T06:48:12;32.49;43.45
68128;SHT30;54931;52.098;21.006;2023-07-16T06:50:40;32.55;44.00
68128;SHT30;54931;52.098;21.006;2023-07-16T06:53:08;32.70;43.41
68128;SHT30;54931;52.098;21.006;2023-07-16T06:55:36;32.71;43.53
68128;SHT30;54931;52.098;21.006;2023-07-16T06:58:04;32.76;43.05
68128;SHT30;54931;52.098;21.006;2023-07-16T07:00:32;32.78;43.53
68128;SHT30;54931;52.098;21.006;2023-07-16T07:02:59;32.98;43.82
68128;SHT30;54931;52.098;21.006;2023-07-16T07:05:27;33.29;43.55
68128;SHT30;54931;52.098;21.006;2023-07-16T07:07:55;33.55;42.73
68128;SHT30;54931;52.098;21.006;2023-07-16T07:10:22;33.67;42.71
68128;SHT30;54931;52.098;21.006;2023-07-16T07:12:50;33.74;41.44
68128;SHT30;54931;52.098;21.006;2023-07-16T07:15:18;33.65;41.55
68128;SHT30;54931;52.098;21.006;2023-07-16T07:17:46;33.71;42.22
68128;SHT30;54931;52.098;21.006;2023-07-16T07:20:13;34.01;42.37
68128;SHT30;54931;52.098;21.006;2023-07-16T07:22:41;34.20;41.50
68128;SHT30;54931;52.098;21.006;2023-07-16T07:25:09;34.41;41.52
68128;SHT30;54931;52.098;21.006;2023-07-16T07:27:36;34.64;41.21
68128;SHT30;54931;52.098;21.006;2023-07-16T07:30:04;34.88;40.74
68128;SHT30;54931;52.098;21.006;2023-07-16T07:32:32;35.00;40.35
68128;SHT30;54931;52.098;21.006;2023-07-16T07:35:03;35.03;39.37
68128;SHT30;54931;52.098;21.006;2023-07-16T07:37:32;34.90;39.55
68128;SHT30;54931;52.098;21.006;2023-07-16T07:40:00;34.93;39.78
68128;SHT30;54931;52.098;21.006;2023-07-16T07:42:27;35.06;39.88
68128;SHT30;54931;52.098;21.006;2023-07-16T07:44:55;35.29;39.03
68128;SHT30;54931;52.098;21.006;2023-07-16T07:47:22;35.35;38.70
68128;SHT30;54931;52.098;21.006;2023-07-16T07:49:51;35.43;38.80
68128;SHT30;54931;52.098;21.006;2023-07-16T07:52:20;35.55;38.42
68128;SHT30;54931;52.098;21.006;2023-07-16T07:54:47;35.63;37.72
68128;SHT30;54931;52.098;21.006;2023-07-16T07:57:15;35.59;37.05
68128;SHT30;54931;52.098;21.006;2023-07-16T07:59:43;35.58;37.35
68128;SHT30;54931;52.098;21.006;2023-07-16T08:02:10;35.68;37.69
68128;SHT30;54931;52.098;21.006;2023-07-16T08:04:38;35.78;37.49
68128;SHT30;54931;52.098;21.006;2023-07-16T08:07:05;35.85;37.04
68128;SHT30;54931;52.098;21.006;2023-07-16T08:09:33;36.00;37.32
68128;SHT30;54931;52.098;21.006;2023-07-16T08:12:00;36.13;36.89
68128;SHT30;54931;52.098;21.006;2023-07-16T08:14:28;36.28;36.71
68128;SHT30;54931;52.098;21.006;2023-07-16T08:16:56;36.44;36.12
68128;SHT30;54931;52.098;21.006;2023-07-16T08:19:23;36.54;35.03
68128;SHT30;54931;52.098;21.006;2023-07-16T08:21:51;36.52;34.76
68128;SHT30;54931;52.098;21.006;2023-07-16T08:24:18;36.60;34.71
68128;SHT30;54931;52.098;21.006;2023-07-16T08:26:46;36.64;34.52
68128;SHT30;54931;52.098;21.006;2023-07-16T08:29:13;36.82;34.78
68128;SHT30;54931;52.098;21.006;2023-07-16T08:31:41;36.93;34.35
68128;SHT30;54931;52.098;21.006;2023-07-16T08:34:08;37.12;34.22
68128;SHT30;54931;52.098;21.006;2023-07-16T08:36:36;37.26;34.18
68128;SHT30;54931;52.098;21.006;2023-07-16T08:39:05;37.43;34.53
68128;SHT30;54931;52.098;21.006;2023-07-16T08:41:32;37.67;33.83
68128;SHT30;54931;52.098;21.006;2023-07-16T08:44:00;37.80;32.26
68128;SHT30;54931;52.098;21.006;2023-07-16T08:46:28;37.78;32.59
68128;SHT30;54931;52.098;21.006;2023-07-16T08:48:55;37.89;31.97
68128;SHT30;54931;52.098;21.006;2023-07-16T08:51:24;37.79;31.70
68128;SHT30;54931;52.098;21.006;2023-07-16T08:53:52;37.77;32.33
68128;SHT30;54931;52.098;21.006;2023-07-16T08:56:20;37.84;31.90
68128;SHT30;54931;52.098;21.006;2023-07-16T08:58:47;37.97;32.13
68128;SHT30;54931;52.098;21.006;2023-07-16T09:01:16;38.14;31.56
68128;SHT30;54931;52.098;21.006;2023-07-16T09:03:45;38.28;31.63
68128;SHT30;54931;52.098;21.006;2023-07-16T09:06:13;38.37;31.05
68128;SHT30;54931;52.098;21.006;2023-07-16T09:08:41;38.38;30.93
68128;SHT30;54931;52.098;21.006;2023-07-16T09:11:11;38.35;30.74
68128;SHT30;54931;52.098;21.006;2023-07-16T09:13:48;38.37;30.88
68128;SHT30;54931;52.098;21.006;2023-07-16T09:16:20;38.44;30.69
68128;SHT30;54931;52.098;21.006;2023-07-16T09:18:48;38.52;30.91
68128;SHT30;54931;52.098;21.006;2023-07-16T09:21:16;38.55;30.86
68128;SHT30;54931;52.098;21.006;2023-07-16T09:23:44;38.59;30.72
68128;SHT30;54931;52.098;21.006;2023-07-16T09:26:11;38.62;31.10
68128;SHT30;54931;52.098;21.006;2023-07-16T09:28:39;38.72;30.90
68128;SHT30;54931;52.098;21.006;2023-07-16T09:31:06;38.83;31.09
68128;SHT30;54931;52.098;21.006;2023-07-16T09:33:35;38.98;30.87
68128;SHT30;54931;52.098;21.006;2023-07-16T09:36:02;39.02;30.88
68128;SHT30;54931;52.098;21.006;2023-07-16T09:38:31;39.03;30.45
68128;SHT30;54931;52.098;21.006;2023-07-16T09:41:00;39.05;30.58
68128;SHT30;54931;52.098;21.006;2023-07-16T09:43:30;39.03;31.01
68128;SHT30;54931;52.098;21.006;2023-07-16T09:46:02;38.96;29.89
68128;SHT30;54931;52.098;21.006;2023-07-16T09:48:30;38.70;29.94
68128;SHT30;54931;52.098;21.006;2023-07-16T09:50:59;38.55;31.08
68128;SHT30;54931;52.098;21.006;2023-07-16T09:53:27;38.65;30.99
68128;SHT30;54931;52.098;21.006;2023-07-16T09:56:00;38.68;30.67
68128;SHT30;54931;52.098;21.006;2023-07-16T09:58:32;38.59;29.67
68128;SHT30;54931;52.098;21.006;2023-07-16T10:01:01;38.51;30.42
68128;SHT30;54931;52.098;21.006;2023-07-16T10:03:30;38.64;30.19
68128;SHT30;54931;52.098;21.006;2023-07-16T10:06:07;38.74;29.73
68128;SHT30;54931;52.098;21.006;2023-07-16T10:08:35;38.59;30.06
68128;SHT30;54931;52.098;21.006;2023-07-16T10:11:03;38.18;30.60
68128;SHT30;54931;52.098;21.006;2023-07-16T10:13:30;37.77;30.94
68128;SHT30;54931;52.098;21.006;2023-07-16T10:16:01;37.53;31.83
68128;SHT30;54931;52.098;21.006;2023-07-16T10:18:29;37.58;31.97
68128;SHT30;54931;52.098;21.006;2023-07-16T10:21:03;37.54;31.75
68128;SHT30;54931;52.098;21.006;2023-07-16T10:26:14;37.18;32.69
68128;SHT30;54931;52.098;21.006;2023-07-16T10:28:42;37.09;32.28
68128;SHT30;54931;52.098;21.006;2023-07-16T10:31:24;37.08;32.22
68128;SHT30;54931;52.098;21.006;2023-07-16T10:33:57;37.14;32.71
68128;SHT30;54931;52.098;21.006;2023-07-16T10:36:39;37.29;32.86
68128;SHT30;54931;52.098;21.006;2023-07-16T10:39:07;37.28;32.23
68128;SHT30;54931;52.098;21.006;2023-07-16T10:41:35;37.14;32.90
68128;SHT30;54931;52.098;21.006;2023-07-16T10:44:02;37.03;33.49
68128;SHT30;54931;52.098;21.006;2023-07-16T10:46:31;37.06;33.30
68128;SHT30;54931;52.098;21.006;2023-07-16T10:49:00;36.95;33.83
68128;SHT30;54931;52.098;21.006;2023-07-16T10:51:28;36.81;34.73
68128;SHT30;54931;52.098;21.006;2023-07-16T10:53:56;36.62;34.58
68128;SHT30;54931;52.098;21.006;2023-07-16T10:56:24;36.44;34.41
68128;SHT30;54931;52.098;21.006;2023-07-16T10:58:52;36.34;35.04
68128;SHT30;54931;52.098;21.006;2023-07-16T11:01:20;36.25;35.54
68128;SHT30;54931;52.098;21.006;2023-07-16T11:03:48;36.29;35.39
68128;SHT30;54931;52.098;21.006;2023-07-16T11:06:17;36.35;35.74
68128;SHT30;54931;52.098;21.006;2023-07-16T11:08:45;36.29;35.48
68128;SHT30;54931;52.098;21.006;2023-07-16T11:11:13;36.16;35.29
68128;SHT30;54931;52.098;21.006;2023-07-16T11:13:40;36.09;35.67
68128;SHT30;54931;52.098;21.006;2023-07-16T11:16:08;36.11;36.08
68128;SHT30;54931;52.098;21.006;2023-07-16T11:18:37;36.01;35.44
68128;SHT30;54931;52.098;21.006;2023-07-16T11:21:05;35.87;36.10
68128;SHT30;54931;52.098;21.006;2023-07-16T11:23:33;35.89;36.58
68128;SHT30;54931;52.098;21.006;2023-07-16T11:26:02;36.11;37.00
68128;SHT30;54931;52.098;21.006;2023-07-16T11:28:37;36.46;36.17
68128;SHT30;54931;52.098;21.006;2023-07-16T11:31:24;36.58;34.93
68128;SHT30;54931;52.098;21.006;2023-07-16T11:33:52;36.37;35.04
68128;SHT30;54931;52.098;21.006;2023-07-16T11:36:19;36.07;35.45
68128;SHT30;54931;52.098;21.006;2023-07-16T11:38:48;35.78;36.00
68128;SHT30;54931;52.098;21.006;2023-07-16T11:41:19;35.64;36.88
68128;SHT30;54931;52.098;21.006;2023-07-16T11:43:48;35.61;36.77
68128;SHT30;54931;52.098;21.006;2023-07-16T11:46:17;35.57;37.24
68128;SHT30;54931;52.098;21.006;2023-07-16T11:48:44;35.61;37.53
68128;SHT30;54931;52.098;21.006;2023-07-16T11:51:12;35.72;37.02
68128;SHT30;54931;52.098;21.006;2023-07-16T11:53:39;35.93;36.12
68128;SHT30;54931;52.098;21.006;2023-07-16T11:56:08;36.06;35.62
68128;SHT30;54931;52.098;21.006;2023-07-16T11:58:36;36.22;35.90
68128;SHT30;54931;52.098;21.006;2023-07-16T12:01:04;36.33;35.41
68128;SHT30;54931;52.098;21.006;2023-07-16T12:03:31;36.19;35.11
68128;SHT30;54931;52.098;21.006;2023-07-16T12:05:59;36.01;35.23
68128;SHT30;54931;52.098;21.006;2023-07-16T12:08:26;35.87;35.67
68128;SHT30;54931;52.098;21.006;2023-07-16T12:10:54;35.71;36.20
68128;SHT30;54931;52.098;21.006;2023-07-16T12:13:21;35.59;36.03
68128;SHT30;54931;52.098;21.006;2023-07-16T12:15:48;35.59;36.66
68128;SHT30;54931;52.098;21.006;2023-07-16T12:18:16;35.70;36.37
68128;SHT30;54931;52.098;21.006;2023-07-16T12:20:43;35.54;36.13
68128;SHT30;54931;52.098;21.006;2023-07-16T12:23:11;35.40;36.64
68128;SHT30;54931;52.098;21.006;2023-07-16T12:25:38;35.45;36.54
68128;SHT30;54931;52.098;21.006;2023-07-16T12:28:06;35.44;36.02
68128;SHT30;54931;52.098;21.006;2023-07-16T12:30:35;35.39;36.09
68128;SHT30;54931;52.098;21.006;2023-07-16T12:33:02;35.53;36.32
68128;SHT30;54931;52.098;21.006;2023-07-16T12:35:31;35.70;36.49
68128;SHT30;54931;52.098;21.006;2023-07-16T12:37:58;35.87;35.64
68128;SHT30;54931;52.098;21.006;2023-07-16T12:40:27;35.86;35.13
68128;SHT30;54931;52.098;21.006;2023-07-16T12:42:56;35.80;35.01
68128;SHT30;54931;52.098;21.006;2023-07-16T12:45:24;35.75;34.89
68128;SHT30;54931;52.098;21.006;2023-07-16T12:47:52;35.69;34.76
68128;SHT30;54931;52.098;21.006;2023-07-16T12:50:19;35.60;34.98
68128;SHT30;54931;52.098;21.006;2023-07-16T12:52:46;35.54;34.66
68128;SHT30;54931;52.098;21.006;2023-07-16T12:55:14;35.47;34.89
68128;SHT30;54931;52.098;21.006;2023-07-16T12:57:44;35.42;34.97
68128;SHT30;54931;52.098;21.006;2023-07-16T13:00:11;35.42;34.99
68128;SHT30;54931;52.098;21.006;2023-07-16T13:02:39;35.39;34.58
68128;SHT30;54931;52.098;21.006;2023-07-16T13:05:07;35.37;34.35
68128;SHT30;54931;52.098;21.006;2023-07-16T13:07:35;35.33;34.27
68128;SHT30;54931;52.098;21.006;2023-07-16T13:10:03;35.27;34.13
68128;SHT30;54931;52.098;21.006;2023-07-16T13:12:31;35.27;34.77
68128;SHT30;54931;52.098;21.006;2023-07-16T13:14:59;35.39;34.35
68128;SHT30;54931;52.098;21.006;2023-07-16T13:17:26;35.38;33.73
68128;SHT30;54931;52.098;21.006;2023-07-16T13:19:54;35.33;34.17
68128;SHT30;54931;52.098;21.006;2023-07-16T13:22:21;35.40;34.58
68128;SHT30;54931;52.098;21.006;2023-07-16T13:24:49;35.50;33.94
68128;SHT30;54931;52.098;21.006;2023-07-16T13:27:20;35.56;34.19
68128;SHT30;54931;52.098;21.006;2023-07-16T13:29:49;35.64;33.39
68128;SHT30;54931;52.098;21.006;2023-07-16T13:32:17;35.53;33.52
68128;SHT30;54931;52.098;21.006;2023-07-16T13:34:44;35.59;34.23
68128;SHT30;54931;52.098;21.006;2023-07-16T13:37:12;35.77;34.47
68128;SHT30;54931;52.098;21.006;2023-07-16T13:39:40;35.86;32.96
68128;SHT30;54931;52.098;21.006;2023-07-16T13:42:08;35.75;33.17
68128;SHT30;54931;52.098;21.006;2023-07-16T13:44:37;35.61;33.17
68128;SHT30;54931;52.098;21.006;2023-07-16T13:47:05;35.50;33.23
68128;SHT30;54931;52.098;21.006;2023-07-16T13:49:34;35.36;33.34
68128;SHT30;54931;52.098;21.006;2023-07-16T13:52:01;35.35;33.87
68128;SHT30;54931;52.098;21.006;2023-07-16T13:54:29;35.42;33.95
68128;SHT30;54931;52.098;21.006;2023-07-16T13:56:56;35.52;33.72
68128;SHT30;54931;52.098;21.006;2023-07-16T13:59:24;35.56;33.76
68128;SHT30;54931;52.098;21.006;2023-07-16T14:02:01;35.49;32.86
68128;SHT30;54931;52.098;21.006;2023-07-16T14:04:31;35.27;33.34
68128;SHT30;54931;52.098;21.006;2023-07-16T14:06:59;35.27;33.64
68128;SHT30;54931;52.098;21.006;2023-07-16T14:09:27;35.29;33.83
68128;SHT30;54931;52.098;21.006;2023-07-16T14:11:55;35.37;34.00
68128;SHT30;54931;52.098;21.006;2023-07-16T14:14:22;35.46;34.05
68128;SHT30;54931;52.098;21.006;2023-07-16T14:16:50;35.52;33.33
68128;SHT30;54931;52.098;21.006;2023-07-16T14:19:18;35.35;33.78
68128;SHT30;54931;52.098;21.006;2023-07-16T14:21:45;35.13;34.03
68128;SHT30;54931;52.098;21.006;2023-07-16T14:24:13;34.90;34.26
68128;SHT30;54931;52.098;21.006;2023-07-16T14:26:41;34.72;34.68
68128;SHT30;54931;52.098;21.006;2023-07-16T14:29:08;34.63;34.78
68128;SHT30;54931;52.098;21.006;2023-07-16T14:31:38;34.43;35.41
68128;SHT30;54931;52.098;21.006;2023-07-16T14:34:05;34.23;35.75
68128;SHT30;54931;52.098;21.006;2023-07-16T14:36:34;34.06;35.74
68128;SHT30;54931;52.098;21.006;2023-07-16T14:39:01;33.94;35.87
68128;SHT30;54931;52.098;21.006;2023-07-16T14:41:29;33.81;36.07
68128;SHT30;54931;52.098;21.006;2023-07-16T14:43:56;33.69;36.40
68128;SHT30;54931;52.098;21.006;2023-07-16T14:46:24;33.62;36.82
68128;SHT30;54931;52.098;21.006;2023-07-16T14:48:52;33.63;37.23
68128;SHT30;54931;52.098;21.006;2023-07-16T14:51:22;33.67;36.94
68128;SHT30;54931;52.098;21.006;2023-07-16T14:53:50;33.69;37.39
68128;SHT30;54931;52.098;21.006;2023-07-16T14:56:19;33.72;37.28
68128;SHT30;54931;52.098;21.006;2023-07-16T14:58:47;33.74;36.69
68128;SHT30;54931;52.098;21.006;2023-07-16T15:01:14;33.61;36.27
68128;SHT30;54931;52.098;21.006;2023-07-16T15:03:42;33.44;36.64
68128;SHT30;54931;52.098;21.006;2023-07-16T15:06:09;33.30;37.19
68128;SHT30;54931;52.098;21.006;2023-07-16T15:08:37;33.15;37.11
68128;SHT30;54931;52.098;21.006;2023-07-16T15:11:04;32.96;37.07
68128;SHT30;54931;52.098;21.006;2023-07-16T15:13:32;32.73;36.93
68128;SHT30;54931;52.098;21.006;2023-07-16T15:16:00;32.57;37.22
68128;SHT30;54931;52.098;21.006;2023-07-16T15:18:27;32.47;37.38
68128;SHT30;54931;52.098;21.006;2023-07-16T15:20:55;32.36;37.55
68128;SHT30;54931;52.098;21.006;2023-07-16T15:23:27;32.26;37.68
68128;SHT30;54931;52.098;21.006;2023-07-16T15:26:00;32.16;37.58
68128;SHT30;54931;52.098;21.006;2023-07-16T15:28:30;32.06;37.61
68128;SHT30;54931;52.098;21.006;2023-07-16T15:31:01;31.99;37.89